sensor_id;sensor_type;location;lat;lon;timestamp;temperature;humidity
75161;DHT22;67232;50.096;8.716;2023-02-26T00:01:22;4.20;60.80
75161;DHT22;67232;50.096;8.716;2023-02-26T00:03:52;4.40;61.00
75161;DHT22;67232;50.096;8.716;2023-02-26T00:06:18;4.40;63.10
75161;DHT22;67232;50.096;8.716;2023-02-26T00:08:45;4.30;62.90
75161;DHT22;67232;50.096;8.716;2023-02-26T00:11:15;4.40;62.30
75161;DHT22;67232;50.096;8.716;2023-02-26T00:13:44;4.50;62.50
75161;DHT22;67232;50.096;8.716;2023-02-26T00:16:32;4.30;61.60
75161;DHT22;67232;50.096;8.716;2023-02-26T00:19:00;4.40;61.70
75161;DHT22;67232;50.096;8.716;2023-02-26T00:21:28;4.40;62.00
75161;DHT22;67232;50.096;8.716;2023-02-26T00:23:54;4.30;61.40
75161;DHT22;67232;50.096;8.716;2023-02-26T00:26:25;4.10;61.70
75161;DHT22;67232;50.096;8.716;2023-02-26T00:28:53;4.20;62.10
75161;DHT22;67232;50.096;8.716;2023-02-26T00:31:19;4.40;61.60
75161;DHT22;67232;50.096;8.716;2023-02-26T00:33:52;4.30;61.20
75161;DHT22;67232;50.096;8.716;2023-02-26T00:36:44;4.10;61.60
75161;DHT22;67232;50.096;8.716;2023-02-26T00:39:36;4.00;61.60
75161;DHT22;67232;50.096;8.716;2023-02-26T00:42:05;4.10;62.00
75161;DHT22;67232;50.096;8.716;2023-02-26T00:44:31;4.00;61.80
75161;DHT22;67232;50.096;8.716;2023-02-26T00:55:21;4.20;61.80
75161;DHT22;67232;50.096;8.716;2023-02-26T00:57:46;4.20;61.70
75161;DHT22;67232;50.096;8.716;2023-02-26T01:00:13;4.20;61.60
75161;DHT22;67232;50.096;8.716;2023-02-26T01:02:42;4.20;61.50
75161;DHT22;67232;50.096;8.716;2023-02-26T01:05:09;4.20;62.10
75161;DHT22;67232;50.096;8.716;2023-02-26T01:10:18;4.30;61.80
75161;DHT22;67232;50.096;8.716;2023-02-26T01:12:46;4.10;62.30
75161;DHT22;67232;50.096;8.716;2023-02-26T01:15:14;4.20;62.00
75161;DHT22;67232;50.096;8.716;2023-02-26T01:17:49;4.20;62.30
75161;DHT22;67232;50.096;8.716;2023-02-26T01:20:24;4.40;61.90
75161;DHT22;67232;50.096;8.716;2023-02-26T01:22:58;4.40;61.50
75161;DHT22;67232;50.096;8.716;2023-02-26T01:25:34;4.40;61.80
75161;DHT22;67232;50.096;8.716;2023-02-26T01:28:03;4.20;61.80
75161;DHT22;67232;50.096;8.716;2023-02-26T01:30:33;4.10;62.00
75161;DHT22;67232;50.096;8.716;2023-02-26T01:35:44;4.10;62.40
75161;DHT22;67232;50.096;8.716;2023-02-26T01:41:00;4.10;62.40
75161;DHT22;67232;50.096;8.716;2023-02-26T01:44:02;4.20;62.50
75161;DHT22;67232;50.096;8.716;2023-02-26T01:49:04;4.10;62.80
75161;DHT22;67232;50.096;8.716;2023-02-26T01:51:58;4.00;63.10
75161;DHT22;67232;50.096;8.716;2023-02-26T01:54:29;4.00;63.20
75161;DHT22;67232;50.096;8.716;2023-02-26T01:59:26;3.90;63.90
75161;DHT22;67232;50.096;8.716;2023-02-26T02:01:55;3.60;64.40
75161;DHT22;67232;50.096;8.716;2023-02-26T02:04:21;3.70;64.70
75161;DHT22;67232;50.096;8.716;2023-02-26T02:06:48;3.60;64.80
75161;DHT22;67232;50.096;8.716;2023-02-26T02:09:14;3.50;65.10
75161;DHT22;67232;50.096;8.716;2023-02-26T02:11:52;3.40;65.60
75161;DHT22;67232;50.096;8.716;2023-02-26T02:14:51;3.40;65.60
75161;DHT22;67232;50.096;8.716;2023-02-26T02:27:34;3.20;67.20
75161;DHT22;67232;50.096;8.716;2023-02-26T02:30:20;3.30;67.50
75161;DHT22;67232;50.096;8.716;2023-02-26T02:32:58;3.40;67.40
75161;DHT22;67232;50.096;8.716;2023-02-26T02:35:28;3.30;67.20
75161;DHT22;67232;50.096;8.716;2023-02-26T02:37:59;3.40;67.60
75161;DHT22;67232;50.096;8.716;2023-02-26T02:40:31;3.50;66.80
75161;DHT22;67232;50.096;8.716;2023-02-26T02:43:01;3.60;66.30
75161;DHT22;67232;50.096;8.716;2023-02-26T02:50:46;3.30;66.40
75161;DHT22;67232;50.096;8.716;2023-02-26T02:53:39;3.30;66.10
75161;DHT22;67232;50.096;8.716;2023-02-26T02:56:26;3.00;65.80
75161;DHT22;67232;50.096;8.716;2023-02-26T03:02:05;2.90;66.70
75161;DHT22;67232;50.096;8.716;2023-02-26T03:04:33;2.70;66.80
75161;DHT22;67232;50.096;8.716;2023-02-26T03:07:01;2.70;67.20
75161;DHT22;67232;50.096;8.716;2023-02-26T03:09:27;2.70;67.60
75161;DHT22;67232;50.096;8.716;2023-02-26T03:11:52;2.60;67.90
75161;DHT22;67232;50.096;8.716;2023-02-26T03:14:18;2.70;67.80
75161;DHT22;67232;50.096;8.716;2023-02-26T03:19:48;2.70;68.30
75161;DHT22;67232;50.096;8.716;2023-02-26T03:25:13;2.90;68.50
75161;DHT22;67232;50.096;8.716;2023-02-26T03:30:38;2.90;69.00
75161;DHT22;67232;50.096;8.716;2023-02-26T03:33:30;2.90;69.20
75161;DHT22;67232;50.096;8.716;2023-02-26T03:41:40;2.90;69.60
75161;DHT22;67232;50.096;8.716;2023-02-26T03:44:18;3.00;69.50
75161;DHT22;67232;50.096;8.716;2023-02-26T03:46:50;3.10;69.10
75161;DHT22;67232;50.096;8.716;2023-02-26T03:49:22;2.90;69.60
75161;DHT22;67232;50.096;8.716;2023-02-26T03:51:49;2.80;69.80
75161;DHT22;67232;50.096;8.716;2023-02-26T03:54:26;2.90;70.10
75161;DHT22;67232;50.096;8.716;2023-02-26T03:56:54;2.80;70.20
75161;DHT22;67232;50.096;8.716;2023-02-26T03:59:19;3.00;70.00
75161;DHT22;67232;50.096;8.716;2023-02-26T04:04:27;3.00;70.00
75161;DHT22;67232;50.096;8.716;2023-02-26T04:06:56;2.80;70.20
75161;DHT22;67232;50.096;8.716;2023-02-26T04:09:22;2.70;70.50
75161;DHT22;67232;50.096;8.716;2023-02-26T04:11:49;2.50;70.80
75161;DHT22;67232;50.096;8.716;2023-02-26T04:14:15;2.30;71.20
75161;DHT22;67232;50.096;8.716;2023-02-26T04:16:41;2.30;71.50
75161;DHT22;67232;50.096;8.716;2023-02-26T04:19:08;2.30;71.50
75161;DHT22;67232;50.096;8.716;2023-02-26T04:21:33;2.30;71.80
75161;DHT22;67232;50.096;8.716;2023-02-26T04:24:01;2.30;71.50
75161;DHT22;67232;50.096;8.716;2023-02-26T04:26:27;2.30;71.80
75161;DHT22;67232;50.096;8.716;2023-02-26T04:28:52;2.40;71.80
75161;DHT22;67232;50.096;8.716;2023-02-26T04:31:18;2.40;71.70
75161;DHT22;67232;50.096;8.716;2023-02-26T04:33:45;2.30;71.90
75161;DHT22;67232;50.096;8.716;2023-02-26T04:36:11;2.30;71.90
75161;DHT22;67232;50.096;8.716;2023-02-26T04:38:37;2.20;72.30
75161;DHT22;67232;50.096;8.716;2023-02-26T04:41:02;2.20;72.50
75161;DHT22;67232;50.096;8.716;2023-02-26T04:43:28;2.30;71.90
75161;DHT22;67232;50.096;8.716;2023-02-26T04:45:53;2.30;72.10
75161;DHT22;67232;50.096;8.716;2023-02-26T04:48:19;2.10;72.30
75161;DHT22;67232;50.096;8.716;2023-02-26T04:50:45;2.10;72.60
75161;DHT22;67232;50.096;8.716;2023-02-26T04:53:11;2.10;72.50
75161;DHT22;67232;50.096;8.716;2023-02-26T04:55:37;2.10;72.40
75161;DHT22;67232;50.096;8.716;2023-02-26T04:58:04;2.20;72.10
75161;DHT22;67232;50.096;8.716;2023-02-26T05:00:29;2.30;72.00
75161;DHT22;67232;50.096;8.716;2023-02-26T05:02:55;2.20;71.90
75161;DHT22;67232;50.096;8.716;2023-02-26T05:05:20;2.20;71.70
75161;DHT22;67232;50.096;8.716;2023-02-26T05:07:46;2.20;72.10
75161;DHT22;67232;50.096;8.716;2023-02-26T05:10:15;2.30;71.90
75161;DHT22;67232;50.096;8.716;2023-02-26T05:12:40;2.40;71.70
75161;DHT22;67232;50.096;8.716;2023-02-26T05:15:06;2.30;71.40
75161;DHT22;67232;50.096;8.716;2023-02-26T05:17:32;2.20;71.50
75161;DHT22;67232;50.096;8.716;2023-02-26T05:19:58;2.30;71.30
75161;DHT22;67232;50.096;8.716;2023-02-26T05:22:23;2.30;71.20
75161;DHT22;67232;50.096;8.716;2023-02-26T05:24:49;2.20;71.10
75161;DHT22;67232;50.096;8.716;2023-02-26T05:27:17;2.30;71.00
75161;DHT22;67232;50.096;8.716;2023-02-26T05:29:42;2.30;71.10
75161;DHT22;67232;50.096;8.716;2023-02-26T05:32:09;2.30;71.10
75161;DHT22;67232;50.096;8.716;2023-02-26T05:34:35;2.40;70.50
75161;DHT22;67232;50.096;8.716;2023-02-26T05:37:01;2.40;70.50
75161;DHT22;67232;50.096;8.716;2023-02-26T05:39:27;2.50;70.40
75161;DHT22;67232;50.096;8.716;2023-02-26T05:41:52;2.40;70.20
75161;DHT22;67232;50.096;8.716;2023-02-26T05:44:21;2.50;70.30
75161;DHT22;67232;50.096;8.716;2023-02-26T05:46:47;2.50;69.90
75161;DHT22;67232;50.096;8.716;2023-02-26T05:49:12;2.60;70.10
75161;DHT22;67232;50.096;8.716;2023-02-26T05:51:38;2.70;69.60
75161;DHT22;67232;50.096;8.716;2023-02-26T05:54:06;2.80;69.50
75161;DHT22;67232;50.096;8.716;2023-02-26T05:56:32;2.80;69.10
75161;DHT22;67232;50.096;8.716;2023-02-26T05:58:59;2.90;69.00
75161;DHT22;67232;50.096;8.716;2023-02-26T06:01:28;2.90;68.30
75161;DHT22;67232;50.096;8.716;2023-02-26T06:03:53;2.80;68.60
75161;DHT22;67232;50.096;8.716;2023-02-26T06:06:19;2.90;68.70
75161;DHT22;67232;50.096;8.716;2023-02-26T06:08:47;2.90;68.90
75161;DHT22;67232;50.096;8.716;2023-02-26T06:11:14;2.80;68.70
75161;DHT22;67232;50.096;8.716;2023-02-26T06:13:40;2.80;68.60
75161;DHT22;67232;50.096;8.716;2023-02-26T06:16:06;2.60;68.30
75161;DHT22;67232;50.096;8.716;2023-02-26T06:18:34;2.50;68.60
75161;DHT22;67232;50.096;8.716;2023-02-26T06:21:00;2.30;68.90
75161;DHT22;67232;50.096;8.716;2023-02-26T06:23:28;2.10;69.10
75161;DHT22;67232;50.096;8.716;2023-02-26T06:25:56;2.10;69.60
75161;DHT22;67232;50.096;8.716;2023-02-26T06:28:24;2.00;69.70
75161;DHT22;67232;50.096;8.716;2023-02-26T06:30:51;2.10;69.40
75161;DHT22;67232;50.096;8.716;2023-02-26T06:33:17;2.10;69.40
75161;DHT22;67232;50.096;8.716;2023-02-26T06:35:43;2.00;69.50
75161;DHT22;67232;50.096;8.716;2023-02-26T06:38:13;2.10;69.30
75161;DHT22;67232;50.096;8.716;2023-02-26T06:40:39;2.00;69.10
75161;DHT22;67232;50.096;8.716;2023-02-26T06:43:04;2.10;69.30
75161;DHT22;67232;50.096;8.716;2023-02-26T06:45:30;2.10;69.10
75161;DHT22;67232;50.096;8.716;2023-02-26T06:47:56;2.10;68.90
75161;DHT22;67232;50.096;8.716;2023-02-26T06:50:24;2.00;69.20
75161;DHT22;67232;50.096;8.716;2023-02-26T06:52:50;2.00;69.40
75161;DHT22;67232;50.096;8.716;2023-02-26T06:55:15;1.80;69.30
75161;DHT22;67232;50.096;8.716;2023-02-26T06:57:41;1.90;69.70
75161;DHT22;67232;50.096;8.716;2023-02-26T07:00:08;1.90;69.70
75161;DHT22;67232;50.096;8.716;2023-02-26T07:02:34;1.80;69.70
75161;DHT22;67232;50.096;8.716;2023-02-26T07:04:59;1.80;69.90
75161;DHT22;67232;50.096;8.716;2023-02-26T07:07:25;1.90;69.90
75161;DHT22;67232;50.096;8.716;2023-02-26T07:09:51;1.90;69.90
75161;DHT22;67232;50.096;8.716;2023-02-26T07:12:18;2.00;70.10
75161;DHT22;67232;50.096;8.716;2023-02-26T07:14:46;2.10;69.60
75161;DHT22;67232;50.096;8.716;2023-02-26T07:17:14;2.20;69.00
75161;DHT22;67232;50.096;8.716;2023-02-26T07:19:47;2.30;69.00
75161;DHT22;67232;50.096;8.716;2023-02-26T07:22:13;2.40;68.40
75161;DHT22;67232;50.096;8.716;2023-02-26T07:24:39;2.40;68.30
75161;DHT22;67232;50.096;8.716;2023-02-26T07:27:05;2.30;68.60
75161;DHT22;67232;50.096;8.716;2023-02-26T07:29:30;2.40;68.80
75161;DHT22;67232;50.096;8.716;2023-02-26T07:31:56;2.50;68.70
75161;DHT22;67232;50.096;8.716;2023-02-26T07:34:24;2.50;68.60
75161;DHT22;67232;50.096;8.716;2023-02-26T07:36:54;2.60;68.30
75161;DHT22;67232;50.096;8.716;2023-02-26T07:39:19;2.60;68.60
75161;DHT22;67232;50.096;8.716;2023-02-26T07:41:45;2.60;68.30
75161;DHT22;67232;50.096;8.716;2023-02-26T07:44:11;2.60;68.70
75161;DHT22;67232;50.096;8.716;2023-02-26T07:46:39;2.70;68.70
75161;DHT22;67232;50.096;8.716;2023-02-26T07:49:04;2.80;68.20
75161;DHT22;67232;50.096;8.716;2023-02-26T07:51:30;3.10;68.10
75161;DHT22;67232;50.096;8.716;2023-02-26T07:53:56;3.40;67.00
75161;DHT22;67232;50.096;8.716;2023-02-26T07:56:21;3.60;66.70
75161;DHT22;67232;50.096;8.716;2023-02-26T07:58:50;3.50;66.10
75161;DHT22;67232;50.096;8.716;2023-02-26T08:01:17;3.30;66.20
75161;DHT22;67232;50.096;8.716;2023-02-26T08:03:43;3.30;65.80
75161;DHT22;67232;50.096;8.716;2023-02-26T08:06:08;3.20;65.60
75161;DHT22;67232;50.096;8.716;2023-02-26T08:08:34;3.30;68.10
75161;DHT22;67232;50.096;8.716;2023-02-26T08:11:00;3.60;66.50
75161;DHT22;67232;50.096;8.716;2023-02-26T08:13:26;3.80;66.70
75161;DHT22;67232;50.096;8.716;2023-02-26T08:15:52;3.60;68.20
75161;DHT22;67232;50.096;8.716;2023-02-26T08:18:18;3.20;67.90
75161;DHT22;67232;50.096;8.716;2023-02-26T08:20:44;3.00;66.60
75161;DHT22;67232;50.096;8.716;2023-02-26T08:23:10;3.00;67.40
75161;DHT22;67232;50.096;8.716;2023-02-26T08:25:35;3.00;68.00
75161;DHT22;67232;50.096;8.716;2023-02-26T08:28:06;3.00;67.60
75161;DHT22;67232;50.096;8.716;2023-02-26T08:30:31;3.20;65.60
75161;DHT22;67232;50.096;8.716;2023-02-26T08:32:57;3.60;65.10
75161;DHT22;67232;50.096;8.716;2023-02-26T08:35:25;3.90;64.30
75161;DHT22;67232;50.096;8.716;2023-02-26T08:37:50;3.90;63.90
75161;DHT22;67232;50.096;8.716;2023-02-26T08:40:19;3.80;63.70
75161;DHT22;67232;50.096;8.716;2023-02-26T08:42:44;4.30;65.30
75161;DHT22;67232;50.096;8.716;2023-02-26T08:45:10;4.50;63.90
75161;DHT22;67232;50.096;8.716;2023-02-26T08:47:36;4.40;63.20
75161;DHT22;67232;50.096;8.716;2023-02-26T08:50:06;4.00;63.10
75161;DHT22;67232;50.096;8.716;2023-02-26T08:52:31;3.90;63.40
75161;DHT22;67232;50.096;8.716;2023-02-26T08:54:58;3.90;64.60
75161;DHT22;67232;50.096;8.716;2023-02-26T08:57:23;3.80;63.20
75161;DHT22;67232;50.096;8.716;2023-02-26T08:59:49;4.00;63.90
75161;DHT22;67232;50.096;8.716;2023-02-26T09:02:15;4.30;64.00
75161;DHT22;67232;50.096;8.716;2023-02-26T09:04:40;4.70;62.80
75161;DHT22;67232;50.096;8.716;2023-02-26T09:07:06;5.80;63.50
75161;DHT22;67232;50.096;8.716;2023-02-26T09:09:34;7.00;59.00
75161;DHT22;67232;50.096;8.716;2023-02-26T09:11:59;7.10;57.70
75161;DHT22;67232;50.096;8.716;2023-02-26T09:14:25;7.20;57.30
75161;DHT22;67232;50.096;8.716;2023-02-26T09:16:53;7.20;57.00
75161;DHT22;67232;50.096;8.716;2023-02-26T09:19:21;7.10;56.90
75161;DHT22;67232;50.096;8.716;2023-02-26T09:21:47;6.90;57.10
75161;DHT22;67232;50.096;8.716;2023-02-26T09:24:12;6.30;58.00
75161;DHT22;67232;50.096;8.716;2023-02-26T09:26:39;5.60;60.10
75161;DHT22;67232;50.096;8.716;2023-02-26T09:29:04;5.90;59.70
75161;DHT22;67232;50.096;8.716;2023-02-26T09:31:30;6.20;59.60
75161;DHT22;67232;50.096;8.716;2023-02-26T09:33:56;6.40;58.20
75161;DHT22;67232;50.096;8.716;2023-02-26T09:36:22;6.60;57.70
75161;DHT22;67232;50.096;8.716;2023-02-26T09:38:48;6.20;57.90
75161;DHT22;67232;50.096;8.716;2023-02-26T09:41:25;6.10;58.60
75161;DHT22;67232;50.096;8.716;2023-02-26T09:51:42;5.30;60.00
75161;DHT22;67232;50.096;8.716;2023-02-26T09:54:17;5.50;60.50
75161;DHT22;67232;50.096;8.716;2023-02-26T09:56:44;6.20;58.90
75161;DHT22;67232;50.096;8.716;2023-02-26T09:59:10;6.90;57.90
75161;DHT22;67232;50.096;8.716;2023-02-26T10:12:41;9.90;51.30
75161;DHT22;67232;50.096;8.716;2023-02-26T10:15:17;9.70;51.30
75161;DHT22;67232;50.096;8.716;2023-02-26T10:18:23;13.60;47.10
75161;DHT22;67232;50.096;8.716;2023-02-26T10:23:54;16.80;39.50
75161;DHT22;67232;50.096;8.716;2023-02-26T10:26:52;18.00;38.30
75161;DHT22;67232;50.096;8.716;2023-02-26T10:34:38;19.10;34.60
75161;DHT22;67232;50.096;8.716;2023-02-26T10:39:45;16.90;36.60
75161;DHT22;67232;50.096;8.716;2023-02-26T10:42:26;14.60;39.60
75161;DHT22;67232;50.096;8.716;2023-02-26T10:51:05;8.50;48.20
75161;DHT22;67232;50.096;8.716;2023-02-26T10:53:34;8.90;48.90
75161;DHT22;67232;50.096;8.716;2023-02-26T10:56:31;8.90;48.40
75161;DHT22;67232;50.096;8.716;2023-02-26T10:58:57;8.50;48.90
75161;DHT22;67232;50.096;8.716;2023-02-26T11:01:24;8.40;49.70
75161;DHT22;67232;50.096;8.716;2023-02-26T11:04:16;8.30;49.60
75161;DHT22;67232;50.096;8.716;2023-02-26T11:06:47;8.00;50.30
75161;DHT22;67232;50.096;8.716;2023-02-26T11:09:34;7.80;50.70
75161;DHT22;67232;50.096;8.716;2023-02-26T11:14:42;7.30;51.40
75161;DHT22;67232;50.096;8.716;2023-02-26T11:22:25;7.60;50.70
75161;DHT22;67232;50.096;8.716;2023-02-26T11:24:52;7.30;51.80
75161;DHT22;67232;50.096;8.716;2023-02-26T11:27:21;6.70;52.50
75161;DHT22;67232;50.096;8.716;2023-02-26T11:29:56;6.80;53.20
75161;DHT22;67232;50.096;8.716;2023-02-26T11:32:36;6.90;52.60
75161;DHT22;67232;50.096;8.716;2023-02-26T11:35:07;6.50;53.00
75161;DHT22;67232;50.096;8.716;2023-02-26T11:37:38;6.50;52.80
75161;DHT22;67232;50.096;8.716;2023-02-26T11:40:36;6.40;51.70
75161;DHT22;67232;50.096;8.716;2023-02-26T11:43:10;6.50;52.00
75161;DHT22;67232;50.096;8.716;2023-02-26T11:45:45;6.40;52.00
75161;DHT22;67232;50.096;8.716;2023-02-26T11:51:08;6.50;52.60
75161;DHT22;67232;50.096;8.716;2023-02-26T11:53:49;6.60;52.70
75161;DHT22;67232;50.096;8.716;2023-02-26T11:56:30;6.80;52.40
75161;DHT22;67232;50.096;8.716;2023-02-26T11:59:05;6.70;52.30
75161;DHT22;67232;50.096;8.716;2023-02-26T12:01:35;7.20;52.00
75161;DHT22;67232;50.096;8.716;2023-02-26T12:04:02;12.00;47.20
75161;DHT22;67232;50.096;8.716;2023-02-26T12:06:28;11.30;46.10
75161;DHT22;67232;50.096;8.716;2023-02-26T12:08:54;9.90;47.40
75161;DHT22;67232;50.096;8.716;2023-02-26T12:19:39;7.10;51.40
75161;DHT22;67232;50.096;8.716;2023-02-26T12:34:04;6.50;52.90
75161;DHT22;67232;50.096;8.716;2023-02-26T12:47:34;6.50;53.10
75161;DHT22;67232;50.096;8.716;2023-02-26T13:18:49;6.20;53.90
75161;DHT22;67232;50.096;8.716;2023-02-26T13:21:25;6.20;53.70
75161;DHT22;67232;50.096;8.716;2023-02-26T13:24:01;5.90;53.40
75161;DHT22;67232;50.096;8.716;2023-02-26T13:26:30;5.90;53.90
75161;DHT22;67232;50.096;8.716;2023-02-26T13:31:44;6.10;53.70
75161;DHT22;67232;50.096;8.716;2023-02-26T13:34:33;6.20;53.60
75161;DHT22;67232;50.096;8.716;2023-02-26T13:37:01;6.30;53.60
75161;DHT22;67232;50.096;8.716;2023-02-26T13:39:55;6.20;53.40
75161;DHT22;67232;50.096;8.716;2023-02-26T13:42:32;6.10;53.50
75161;DHT22;67232;50.096;8.716;2023-02-26T13:53:01;6.00;53.10
75161;DHT22;67232;50.096;8.716;2023-02-26T13:55:50;6.20;52.00
75161;DHT22;67232;50.096;8.716;2023-02-26T14:03:49;6.00;52.20
75161;DHT22;67232;50.096;8.716;2023-02-26T14:06:41;6.00;52.30
75161;DHT22;67232;50.096;8.716;2023-02-26T14:15:18;5.80;51.70
75161;DHT22;67232;50.096;8.716;2023-02-26T14:17:38;5.90;51.50
75161;DHT22;67232;50.096;8.716;2023-02-26T14:22:46;6.00;51.60
75161;DHT22;67232;50.096;8.716;2023-02-26T14:25:33;6.00;51.70
75161;DHT22;67232;50.096;8.716;2023-02-26T14:28:31;6.20;51.90
75161;DHT22;67232;50.096;8.716;2023-02-26T14:31:20;6.10;52.00
75161;DHT22;67232;50.096;8.716;2023-02-26T14:33:57;6.20;51.90
75161;DHT22;67232;50.096;8.716;2023-02-26T14:36:56;6.30;51.80
75161;DHT22;67232;50.096;8.716;2023-02-26T14:42:07;6.10;52.30
75161;DHT22;67232;50.096;8.716;2023-02-26T14:44:43;6.00;52.80
75161;DHT22;67232;50.096;8.716;2023-02-26T14:47:14;5.90;52.40
75161;DHT22;67232;50.096;8.716;2023-02-26T14:49:45;5.80;52.00
75161;DHT22;67232;50.096;8.716;2023-02-26T14:52:35;5.80;52.40
75161;DHT22;67232;50.096;8.716;2023-02-26T15:03:31;5.80;52.90
75161;DHT22;67232;50.096;8.716;2023-02-26T15:06:05;5.80;52.40
75161;DHT22;67232;50.096;8.716;2023-02-26T15:17:17;5.70;52.60
75161;DHT22;67232;50.096;8.716;2023-02-26T15:25:18;5.50;53.50
75161;DHT22;67232;50.096;8.716;2023-02-26T15:27:49;5.40;54.10
75161;DHT22;67232;50.096;8.716;2023-02-26T15:30:17;5.50;54.40
75161;DHT22;67232;50.096;8.716;2023-02-26T15:32:45;5.60;53.70
75161;DHT22;67232;50.096;8.716;2023-02-26T15:35:19;5.70;53.70
75161;DHT22;67232;50.096;8.716;2023-02-26T15:37:51;5.70;53.70
75161;DHT22;67232;50.096;8.716;2023-02-26T15:40:18;5.80;53.90
75161;DHT22;67232;50.096;8.716;2023-02-26T15:42:52;5.70;53.70
75161;DHT22;67232;50.096;8.716;2023-02-26T15:45:30;5.60;53.30
75161;DHT22;67232;50.096;8.716;2023-02-26T15:48:00;5.40;53.40
75161;DHT22;67232;50.096;8.716;2023-02-26T15:50:29;5.40;53.20
75161;DHT22;67232;50.096;8.716;2023-02-26T15:52:59;5.30;53.50
75161;DHT22;67232;50.096;8.716;2023-02-26T15:55:27;5.20;53.40
75161;DHT22;67232;50.096;8.716;2023-02-26T15:57:57;5.10;53.40
75161;DHT22;67232;50.096;8.716;2023-02-26T16:00:23;5.00;53.40
75161;DHT22;67232;50.096;8.716;2023-02-26T16:02:51;4.90;53.00
75161;DHT22;67232;50.096;8.716;2023-02-26T16:05:22;4.90;53.00
75161;DHT22;67232;50.096;8.716;2023-02-26T16:07:48;4.90;53.10
75161;DHT22;67232;50.096;8.716;2023-02-26T16:10:26;4.90;52.60
75161;DHT22;67232;50.096;8.716;2023-02-26T16:12:52;4.90;52.60
75161;DHT22;67232;50.096;8.716;2023-02-26T16:15:27;5.10;52.50
75161;DHT22;67232;50.096;8.716;2023-02-26T16:17:57;5.30;52.60
75161;DHT22;67232;50.096;8.716;2023-02-26T16:20:26;5.30;52.40
75161;DHT22;67232;50.096;8.716;2023-02-26T16:23:01;5.40;52.50
75161;DHT22;67232;50.096;8.716;2023-02-26T16:25:40;5.30;52.60
75161;DHT22;67232;50.096;8.716;2023-02-26T16:28:14;5.10;53.10
75161;DHT22;67232;50.096;8.716;2023-02-26T16:30:43;5.00;53.70
75161;DHT22;67232;50.096;8.716;2023-02-26T16:33:13;5.10;54.00
75161;DHT22;67232;50.096;8.716;2023-02-26T16:35:48;5.00;54.00
75161;DHT22;67232;50.096;8.716;2023-02-26T16:38:26;5.10;53.70
75161;DHT22;67232;50.096;8.716;2023-02-26T16:41:04;5.00;54.00
75161;DHT22;67232;50.096;8.716;2023-02-26T16:46:03;4.70;54.60
75161;DHT22;67232;50.096;8.716;2023-02-26T16:48:42;4.60;54.90
75161;DHT22;67232;50.096;8.716;2023-02-26T16:51:15;4.50;55.00
75161;DHT22;67232;50.096;8.716;2023-02-26T16:53:45;4.50;55.20
75161;DHT22;67232;50.096;8.716;2023-02-26T16:56:17;4.50;55.60
75161;DHT22;67232;50.096;8.716;2023-02-26T16:58:52;4.60;55.30
75161;DHT22;67232;50.096;8.716;2023-02-26T17:01:22;4.60;54.90
75161;DHT22;67232;50.096;8.716;2023-02-26T17:03:57;4.60;54.90
75161;DHT22;67232;50.096;8.716;2023-02-26T17:06:26;4.70;54.20
75161;DHT22;67232;50.096;8.716;2023-02-26T17:09:04;4.60;54.30
75161;DHT22;67232;50.096;8.716;2023-02-26T17:11:39;4.60;54.30
75161;DHT22;67232;50.096;8.716;2023-02-26T17:16:50;4.60;54.20
75161;DHT22;67232;50.096;8.716;2023-02-26T17:19:16;4.50;54.40
75161;DHT22;67232;50.096;8.716;2023-02-26T17:22:01;4.60;54.30
75161;DHT22;67232;50.096;8.716;2023-02-26T17:24:39;4.70;54.20
75161;DHT22;67232;50.096;8.716;2023-02-26T17:27:17;4.70;54.20
75161;DHT22;67232;50.096;8.716;2023-02-26T17:29:49;4.70;54.00
75161;DHT22;67232;50.096;8.716;2023-02-26T17:34:43;4.50;54.90
75161;DHT22;67232;50.096;8.716;2023-02-26T17:37:12;4.60;54.80
75161;DHT22;67232;50.096;8.716;2023-02-26T17:39:39;4.60;54.70
75161;DHT22;67232;50.096;8.716;2023-02-26T17:42:11;4.70;54.70
75161;DHT22;67232;50.096;8.716;2023-02-26T17:44:40;4.70;54.80
75161;DHT22;67232;50.096;8.716;2023-02-26T17:47:11;4.80;54.80
75161;DHT22;67232;50.096;8.716;2023-02-26T17:49:38;4.70;54.90
75161;DHT22;67232;50.096;8.716;2023-02-26T17:52:07;4.60;54.80
75161;DHT22;67232;50.096;8.716;2023-02-26T17:54:32;4.50;55.00
75161;DHT22;67232;50.096;8.716;2023-02-26T17:57:00;4.50;55.30
75161;DHT22;67232;50.096;8.716;2023-02-26T17:59:26;4.40;55.40
75161;DHT22;67232;50.096;8.716;2023-02-26T18:01:55;4.30;55.60
75161;DHT22;67232;50.096;8.716;2023-02-26T18:04:21;4.30;55.70
75161;DHT22;67232;50.096;8.716;2023-02-26T18:06:47;4.30;55.70
75161;DHT22;67232;50.096;8.716;2023-02-26T18:09:13;4.30;55.80
75161;DHT22;67232;50.096;8.716;2023-02-26T18:11:39;4.30;55.90
75161;DHT22;67232;50.096;8.716;2023-02-26T18:14:09;4.40;55.60
75161;DHT22;67232;50.096;8.716;2023-02-26T18:16:39;4.40;55.30
75161;DHT22;67232;50.096;8.716;2023-02-26T18:19:13;4.40;55.40
75161;DHT22;67232;50.096;8.716;2023-02-26T18:21:39;4.50;55.00
75161;DHT22;67232;50.096;8.716;2023-02-26T18:24:04;4.60;54.70
75161;DHT22;67232;50.096;8.716;2023-02-26T18:26:35;4.40;54.70
75161;DHT22;67232;50.096;8.716;2023-02-26T18:29:01;4.50;54.70
75161;DHT22;67232;50.096;8.716;2023-02-26T18:31:29;4.50;54.80
75161;DHT22;67232;50.096;8.716;2023-02-26T18:33:59;4.40;54.80
75161;DHT22;67232;50.096;8.716;2023-02-26T18:36:26;4.50;54.70
75161;DHT22;67232;50.096;8.716;2023-02-26T18:38:59;4.50;54.90
75161;DHT22;67232;50.096;8.716;2023-02-26T18:41:27;4.50;55.00
75161;DHT22;67232;50.096;8.716;2023-02-26T18:43:58;4.60;55.10
75161;DHT22;67232;50.096;8.716;2023-02-26T18:46:25;4.50;55.30
75161;DHT22;67232;50.096;8.716;2023-02-26T18:48:54;4.50;55.30
75161;DHT22;67232;50.096;8.716;2023-02-26T18:51:20;4.50;55.10
75161;DHT22;67232;50.096;8.716;2023-02-26T18:53:45;4.60;55.30
75161;DHT22;67232;50.096;8.716;2023-02-26T18:56:13;4.70;55.20
75161;DHT22;67232;50.096;8.716;2023-02-26T18:58:43;4.60;55.10
75161;DHT22;67232;50.096;8.716;2023-02-26T19:01:11;4.60;55.40
75161;DHT22;67232;50.096;8.716;2023-02-26T19:03:37;4.50;55.60
75161;DHT22;67232;50.096;8.716;2023-02-26T19:06:04;4.50;55.60
75161;DHT22;67232;50.096;8.716;2023-02-26T19:08:33;4.40;55.60
75161;DHT22;67232;50.096;8.716;2023-02-26T19:10:59;4.40;55.80
75161;DHT22;67232;50.096;8.716;2023-02-26T19:13:25;4.40;55.60
75161;DHT22;67232;50.096;8.716;2023-02-26T19:15:52;4.40;55.60
75161;DHT22;67232;50.096;8.716;2023-02-26T19:18:18;4.60;55.40
75161;DHT22;67232;50.096;8.716;2023-02-26T19:20:43;4.60;55.40
75161;DHT22;67232;50.096;8.716;2023-02-26T19:23:09;4.60;55.50
75161;DHT22;67232;50.096;8.716;2023-02-26T19:25:36;4.50;55.50
75161;DHT22;67232;50.096;8.716;2023-02-26T19:28:02;4.50;55.50
75161;DHT22;67232;50.096;8.716;2023-02-26T19:30:31;4.60;55.70
75161;DHT22;67232;50.096;8.716;2023-02-26T19:32:56;4.60;55.20
75161;DHT22;67232;50.096;8.716;2023-02-26T19:35:24;4.40;55.70
75161;DHT22;67232;50.096;8.716;2023-02-26T19:37:54;4.40;55.50
75161;DHT22;67232;50.096;8.716;2023-02-26T19:40:19;4.50;55.50
75161;DHT22;67232;50.096;8.716;2023-02-26T19:42:46;4.50;55.10
75161;DHT22;67232;50.096;8.716;2023-02-26T19:45:15;4.50;55.30